createdAt,value
2016-03-14T00:00:30.636Z,1002.48
2016-03-14T00:01:30.639Z,1002.43
2016-03-14T00:02:30.626Z,1002.49
2016-03-14T00:03:30.628Z,1002.49
2016-03-14T00:04:30.615Z,1002.49
2016-03-14T00:05:30.618Z,1002.5
2016-03-14T00:06:30.620Z,1002.51
2016-03-14T00:07:30.608Z,1002.47
2016-03-14T00:08:30.611Z,1002.56
2016-03-14T00:09:30.614Z,1002.48
2016-03-14T00:10:30.616Z,1002.5
2016-03-14T00:11:30.603Z,1002.53
2016-03-14T00:12:30.591Z,1002.54
2016-03-14T00:13:30.593Z,1002.52
2016-03-14T00:14:30.596Z,1002.51
2016-03-14T00:15:30.583Z,1002.57
2016-03-14T00:16:30.585Z,1002.57
2016-03-14T00:17:30.589Z,1002.6
2016-03-14T00:18:30.591Z,1002.61
2016-03-14T00:19:30.563Z,1002.58
2016-03-14T00:20:30.565Z,1002.65
2016-03-14T00:21:30.552Z,1002.63
2016-03-14T00:22:30.554Z,1002.63
2016-03-14T00:23:30.557Z,1002.61
2016-03-14T00:24:30.544Z,1002.64
2016-03-14T00:25:30.546Z,1002.58
2016-03-14T00:26:30.549Z,1002.61
2016-03-14T00:27:30.537Z,1002.61
2016-03-14T00:28:30.540Z,1002.62
2016-03-14T00:29:30.526Z,1002.61
2016-03-14T00:30:30.529Z,1002.62
2016-03-14T00:31:30.532Z,1002.63
2016-03-14T00:32:30.534Z,1002.67
2016-03-14T00:33:30.522Z,1002.62
2016-03-14T00:34:30.525Z,1002.57
2016-03-14T00:35:30.511Z,1002.58
2016-03-14T00:36:30.515Z,1002.58
2016-03-14T00:37:30.501Z,1002.56
2016-03-14T00:38:30.504Z,1002.59
2016-03-14T00:39:30.506Z,1002.62
2016-03-14T00:40:30.494Z,1002.56
2016-03-14T00:41:30.496Z,1002.59
2016-03-14T00:42:30.483Z,1002.54
2016-03-14T00:43:30.486Z,1002.54
2016-03-14T00:44:30.489Z,1002.55
2016-03-14T00:45:30.475Z,1002.56
2016-03-14T00:46:30.478Z,1002.54
2016-03-14T00:47:30.481Z,1002.55
2016-03-14T00:48:30.468Z,1002.56
2016-03-14T00:49:30.471Z,1002.55
2016-03-14T00:50:30.458Z,1002.55
2016-03-14T00:51:30.460Z,1002.55
2016-03-14T00:52:30.448Z,1002.56
2016-03-14T00:53:30.451Z,1002.55
2016-03-14T00:54:30.453Z,1002.55
2016-03-14T00:55:30.440Z,1002.62
2016-03-14T00:56:30.443Z,1002.51
2016-03-14T00:57:30.430Z,1002.57
2016-03-14T00:58:30.452Z,1002.56
2016-03-14T00:59:30.436Z,1002.54
2016-03-14T01:00:30.424Z,1002.52
2016-03-14T01:01:30.441Z,1002.53
2016-03-14T01:02:30.422Z,1002.5
2016-03-14T01:03:30.425Z,1002.5
2016-03-14T01:04:30.411Z,1002.5
2016-03-14T01:05:30.414Z,1002.44
2016-03-14T01:06:30.402Z,1002.46
2016-03-14T01:07:30.404Z,1002.51
2016-03-14T01:08:30.408Z,1002.5
2016-03-14T01:09:30.410Z,1002.45
2016-03-14T01:10:30.397Z,1002.52
2016-03-14T01:11:30.399Z,1002.49
2016-03-14T01:12:30.386Z,1002.5
2016-03-14T01:13:30.389Z,1002.52
2016-03-14T01:14:30.376Z,1002.5
2016-03-14T01:15:30.379Z,1002.5
2016-03-14T01:16:30.381Z,1002.48
2016-03-14T01:17:30.368Z,1002.48
2016-03-14T01:18:30.372Z,1002.46
2016-03-14T01:19:30.358Z,1002.46
2016-03-14T01:20:30.360Z,1002.48
2016-03-14T01:21:30.348Z,1002.44
2016-03-14T01:22:30.351Z,1002.42
2016-03-14T01:23:30.353Z,1002.42
2016-03-14T01:24:30.340Z,1002.42
2016-03-14T01:25:30.343Z,1002.35
2016-03-14T01:26:30.345Z,1002.42
2016-03-14T01:27:30.333Z,1002.4
2016-03-14T01:28:30.336Z,1002.44
2016-03-14T01:29:30.323Z,1002.41
2016-03-14T01:30:30.326Z,1002.46
2016-03-14T01:31:30.328Z,1002.42
2016-03-14T01:32:30.315Z,1002.41
2016-03-14T01:33:30.317Z,1002.45
2016-03-14T01:34:30.305Z,1002.4
2016-03-14T01:35:30.308Z,1002.41
2016-03-14T01:36:30.294Z,1002.46
2016-03-14T01:37:30.297Z,1002.47
2016-03-14T01:38:30.300Z,1002.39
2016-03-14T01:39:30.287Z,1002.44
2016-03-14T01:40:30.289Z,1002.41
2016-03-14T01:41:30.292Z,1002.41
2016-03-14T01:42:30.280Z,1002.44
2016-03-14T01:43:30.282Z,1002.42
2016-03-14T01:44:30.269Z,1002.47
2016-03-14T01:45:30.272Z,1002.46
2016-03-14T01:46:30.274Z,1002.46
2016-03-14T01:47:30.262Z,1002.44
2016-03-14T01:48:30.265Z,1002.42
2016-03-14T01:49:30.251Z,1002.41
2016-03-14T01:50:30.254Z,1002.42
2016-03-14T01:51:30.241Z,1002.41
2016-03-14T01:52:30.243Z,1002.42
2016-03-14T01:53:30.246Z,1002.44
2016-03-14T01:54:30.233Z,1002.45
2016-03-14T01:55:30.237Z,1002.45
2016-03-14T01:56:30.254Z,1002.47
2016-03-14T01:57:30.257Z,1002.45
2016-03-14T01:58:30.229Z,1002.49
2016-03-14T01:59:30.215Z,1002.39
2016-03-14T02:00:30.218Z,1002.38
2016-03-14T02:01:30.221Z,1002.39
2016-03-14T02:02:30.208Z,1002.38
2016-03-14T02:03:30.195Z,1002.42
2016-03-14T02:04:30.198Z,1002.36
2016-03-14T02:05:30.201Z,1002.39
2016-03-14T02:06:30.188Z,1002.38
2016-03-14T02:07:30.191Z,1002.43
2016-03-14T02:08:30.194Z,1002.43
2016-03-14T02:09:30.180Z,1002.36
2016-03-14T02:10:30.167Z,1002.35
2016-03-14T02:11:30.170Z,1002.39
2016-03-14T02:12:30.157Z,1002.39
2016-03-14T02:13:30.160Z,1002.38
2016-03-14T02:14:30.163Z,1002.32
2016-03-14T02:15:30.149Z,1002.35
2016-03-14T02:16:30.152Z,1002.33
2016-03-14T02:17:30.139Z,1002.32
2016-03-14T02:18:30.141Z,1002.32
2016-03-14T02:19:30.129Z,1002.3
2016-03-14T02:20:30.132Z,1002.32
2016-03-14T02:21:30.134Z,1002.32
2016-03-14T02:22:30.121Z,1002.3
2016-03-14T02:23:30.123Z,1002.34
2016-03-14T02:24:30.127Z,1002.36
2016-03-14T02:25:30.114Z,1002.34
2016-03-14T02:26:30.117Z,1002.32
2016-03-14T02:27:30.104Z,1002.42
2016-03-14T02:28:30.106Z,1002.32
2016-03-14T02:29:30.093Z,1002.37
2016-03-14T02:30:30.096Z,1002.34
2016-03-14T02:31:30.083Z,1002.35
2016-03-14T02:32:30.086Z,1002.34
2016-03-14T02:33:30.088Z,1002.35
2016-03-14T02:34:30.076Z,1002.41
2016-03-14T02:35:30.078Z,1002.32
2016-03-14T02:36:30.065Z,1002.34
2016-03-14T02:37:30.068Z,1002.31
2016-03-14T02:38:30.070Z,1002.32
2016-03-14T02:39:30.089Z,1002.32
2016-03-14T02:40:30.061Z,1002.29
2016-03-14T02:41:30.047Z,1002.31
2016-03-14T02:42:30.049Z,1002.32
2016-03-14T02:43:30.038Z,1002.24
2016-03-14T02:44:30.040Z,1002.3
2016-03-14T02:45:30.027Z,1002.28
2016-03-14T02:46:30.030Z,1002.29
2016-03-14T02:47:30.032Z,1002.27
2016-03-14T02:48:30.011Z,1002.2
2016-03-14T02:49:29.987Z,1002.24
2016-03-14T02:50:29.976Z,1002.23
2016-03-14T02:51:29.966Z,1002.18
2016-03-14T02:52:29.941Z,1002.16
2016-03-14T02:53:29.935Z,1002.2
2016-03-14T02:54:29.934Z,1002.24
2016-03-14T02:55:29.915Z,1002.24
2016-03-14T02:56:29.914Z,1002.2
2016-03-14T02:57:29.897Z,1002.22
2016-03-14T02:58:29.896Z,1002.24
2016-03-14T02:59:29.881Z,1002.33
2016-03-14T03:00:29.883Z,1002.23
2016-03-14T03:01:29.869Z,1002.25
2016-03-14T03:02:29.870Z,1002.27
2016-03-14T03:03:29.856Z,1002.28
2016-03-14T03:04:29.858Z,1002.25
2016-03-14T03:05:29.843Z,1002.27
2016-03-14T03:06:29.845Z,1002.28
2016-03-14T03:07:29.848Z,1002.25
2016-03-14T03:08:29.835Z,1002.26
2016-03-14T03:09:29.838Z,1002.22
2016-03-14T03:10:29.824Z,1002.26
2016-03-14T03:11:29.827Z,1002.26
2016-03-14T03:12:29.813Z,1002.22
2016-03-14T03:13:29.817Z,1002.22
2016-03-14T03:14:29.804Z,1002.17
2016-03-14T03:15:29.807Z,1002.19
2016-03-14T03:16:29.809Z,1002.17
2016-03-14T03:17:29.813Z,1002.14
2016-03-14T03:18:29.799Z,1002.21
2016-03-14T03:19:29.787Z,1002.19
2016-03-14T03:20:29.789Z,1002.25
2016-03-14T03:21:29.792Z,1002.21
2016-03-14T03:22:29.778Z,1002.25
2016-03-14T03:23:29.781Z,1002.18
2016-03-14T03:24:29.768Z,1002.21
2016-03-14T03:25:29.771Z,1002.19
2016-03-14T03:26:29.773Z,1002.18
2016-03-14T03:27:29.761Z,1002.22
2016-03-14T03:28:29.747Z,1002.2
2016-03-14T03:29:29.750Z,1002.21
2016-03-14T03:30:29.737Z,1002.16
2016-03-14T03:31:29.740Z,1002.2
2016-03-14T03:32:29.728Z,1002.2
2016-03-14T03:33:29.730Z,1002.24
2016-03-14T03:34:29.717Z,1002.24
2016-03-14T03:35:29.720Z,1002.21
2016-03-14T03:36:29.723Z,1002.21
2016-03-14T03:37:29.710Z,1002.23
2016-03-14T03:38:29.713Z,1002.23
2016-03-14T03:39:29.699Z,1002.23
2016-03-14T03:40:29.702Z,1002.26
2016-03-14T03:41:29.689Z,1002.25
2016-03-14T03:42:29.692Z,1002.29
2016-03-14T03:43:29.694Z,1002.24
2016-03-14T03:44:29.682Z,1002.28
2016-03-14T03:45:29.684Z,1002.28
2016-03-14T03:46:29.671Z,1002.32
2016-03-14T03:47:29.673Z,1002.31
2016-03-14T03:48:29.661Z,1002.29
2016-03-14T03:49:29.663Z,1002.29
2016-03-14T03:50:29.651Z,1002.32
2016-03-14T03:51:29.653Z,1002.28
2016-03-14T03:52:29.641Z,1002.33
2016-03-14T03:53:29.643Z,1002.31
2016-03-14T03:54:29.631Z,1002.35
2016-03-14T03:55:29.633Z,1002.38
2016-03-14T03:56:29.620Z,1002.37
2016-03-14T03:57:29.622Z,1002.43
2016-03-14T03:58:29.609Z,1002.37
2016-03-14T03:59:29.612Z,1002.37
2016-03-14T04:00:29.615Z,1002.38
2016-03-14T04:01:29.602Z,1002.35
2016-03-14T04:02:29.605Z,1002.36
2016-03-14T04:03:29.591Z,1002.4
2016-03-14T04:04:29.594Z,1002.43
2016-03-14T04:05:29.581Z,1002.39
2016-03-14T04:06:29.584Z,1002.42
2016-03-14T04:07:29.586Z,1002.44
2016-03-14T04:08:29.574Z,1002.4
2016-03-14T04:09:29.561Z,1002.41
2016-03-14T04:10:29.580Z,1002.43
2016-03-14T04:11:29.567Z,1002.45
2016-03-14T04:12:29.554Z,1002.41
2016-03-14T04:13:29.540Z,1002.44
2016-03-14T04:14:29.559Z,1002.45
2016-03-14T04:15:29.530Z,1002.44
2016-03-14T04:16:29.533Z,1002.51
2016-03-14T04:17:29.521Z,1002.51
2016-03-14T04:18:29.524Z,1002.48
2016-03-14T04:19:29.525Z,1002.51
2016-03-14T04:20:29.512Z,1002.5
2016-03-14T04:21:29.515Z,1002.51
2016-03-14T04:22:29.502Z,1002.48
2016-03-14T04:23:29.505Z,1002.51
2016-03-14T04:24:29.493Z,1002.54
2016-03-14T04:25:29.495Z,1002.53
2016-03-14T04:26:29.482Z,1002.54
2016-03-14T04:27:29.485Z,1002.55
2016-03-14T04:28:29.488Z,1002.55
2016-03-14T04:29:29.490Z,1002.61
2016-03-14T04:30:29.478Z,1002.61
2016-03-14T04:31:29.464Z,1002.64
2016-03-14T04:32:29.451Z,1002.6
2016-03-14T04:33:29.454Z,1002.63
2016-03-14T04:34:29.442Z,1002.65
2016-03-14T04:35:29.444Z,1002.67
2016-03-14T04:36:29.431Z,1002.64
2016-03-14T04:37:29.433Z,1002.65
2016-03-14T04:38:29.420Z,1002.63
2016-03-14T04:39:29.423Z,1002.62
2016-03-14T04:40:29.426Z,1002.63
2016-03-14T04:41:29.413Z,1002.66
2016-03-14T04:42:29.416Z,1002.66
2016-03-14T04:43:29.402Z,1002.7
2016-03-14T04:44:29.391Z,1002.65
2016-03-14T04:45:29.393Z,1002.64
2016-03-14T04:46:29.380Z,1002.64
2016-03-14T04:47:29.382Z,1002.64
2016-03-14T04:48:29.385Z,1002.65
2016-03-14T04:49:29.371Z,1002.66
2016-03-14T04:50:29.374Z,1002.68
2016-03-14T04:51:29.362Z,1002.68
2016-03-14T04:52:29.349Z,1002.65
2016-03-14T04:53:29.351Z,1002.67
2016-03-14T04:54:29.338Z,1002.67
2016-03-14T04:55:29.341Z,1002.68
2016-03-14T04:56:29.328Z,1002.67
2016-03-14T04:57:29.331Z,1002.67
2016-03-14T04:58:29.318Z,1002.65
2016-03-14T04:59:29.320Z,1002.66
2016-03-14T05:00:29.308Z,1002.64
2016-03-14T05:01:29.311Z,1002.6
2016-03-14T05:02:29.298Z,1002.63
2016-03-14T05:03:29.301Z,1002.63
2016-03-14T05:04:29.287Z,1002.6
2016-03-14T05:05:29.290Z,1002.65
2016-03-14T05:06:29.277Z,1002.67
2016-03-14T05:07:29.280Z,1002.64
2016-03-14T05:08:29.267Z,1002.62
2016-03-14T05:09:29.270Z,1002.66
2016-03-14T05:10:29.256Z,1002.63
2016-03-14T05:11:29.259Z,1002.66
2016-03-14T05:12:29.246Z,1002.65
2016-03-14T05:13:29.249Z,1002.68
2016-03-14T05:14:29.236Z,1002.67
2016-03-14T05:15:29.239Z,1002.65
2016-03-14T05:16:29.226Z,1002.65
2016-03-14T05:17:29.229Z,1002.65
2016-03-14T05:18:29.215Z,1002.74
2016-03-14T05:19:29.219Z,1002.74
2016-03-14T05:20:29.205Z,1002.74
2016-03-14T05:21:29.208Z,1002.7
2016-03-14T05:22:29.195Z,1002.71
2016-03-14T05:23:29.198Z,1002.74
2016-03-14T05:24:29.184Z,1002.74
2016-03-14T05:25:29.187Z,1002.74
2016-03-14T05:26:29.174Z,1002.78
2016-03-14T05:27:29.177Z,1002.78
2016-03-14T05:28:29.164Z,1002.76
2016-03-14T05:29:29.167Z,1002.81
2016-03-14T05:30:29.169Z,1002.82
2016-03-14T05:31:29.156Z,1002.82
2016-03-14T05:32:29.144Z,1002.81
2016-03-14T05:33:29.147Z,1002.8
2016-03-14T05:34:29.133Z,1002.83
2016-03-14T05:35:29.120Z,1002.87
2016-03-14T05:36:29.123Z,1002.8
2016-03-14T05:37:29.126Z,1002.86
2016-03-14T05:38:29.129Z,1002.88
2016-03-14T05:39:29.100Z,1002.93
2016-03-14T05:40:29.103Z,1002.93
2016-03-14T05:41:29.089Z,1002.97
2016-03-14T05:42:29.092Z,1002.98
2016-03-14T05:43:29.095Z,1003.02
2016-03-14T05:44:29.098Z,1002.98
2016-03-14T05:45:29.085Z,1002.98
2016-03-14T05:46:29.072Z,1002.99
2016-03-14T05:47:29.074Z,1003.02
2016-03-14T05:48:29.077Z,1003
2016-03-14T05:49:29.065Z,1003.04
2016-03-14T05:50:29.051Z,1003.04
2016-03-14T05:51:29.038Z,1003.08
2016-03-14T05:52:29.057Z,1003.08
2016-03-14T05:53:29.044Z,1003.08
2016-03-14T05:54:29.046Z,1003.12
2016-03-14T05:55:29.034Z,1003.12
2016-03-14T05:56:29.037Z,1003.1
2016-03-14T05:57:29.023Z,1003.11
2016-03-14T05:58:29.010Z,1003.12
2016-03-14T05:59:28.997Z,1003.15
2016-03-14T06:00:29.000Z,1003.13
2016-03-14T06:01:29.003Z,1003.14
2016-03-14T06:02:28.990Z,1003.18
2016-03-14T06:03:28.992Z,1003.24
2016-03-14T06:04:28.980Z,1003.23
2016-03-14T06:05:28.997Z,1003.25
2016-03-14T06:06:28.975Z,1003.26
2016-03-14T06:07:28.962Z,1003.27
2016-03-14T06:08:28.980Z,1003.34
2016-03-14T06:09:28.952Z,1003.32
2016-03-14T06:10:28.954Z,1003.31
2016-03-14T06:11:28.941Z,1003.35
2016-03-14T06:12:28.927Z,1003.34
2016-03-14T06:13:28.931Z,1003.32
2016-03-14T06:14:28.918Z,1003.32
2016-03-14T06:15:28.921Z,1003.29
2016-03-14T06:16:28.907Z,1003.32
2016-03-14T06:17:28.910Z,1003.33
2016-03-14T06:18:28.928Z,1003.33
2016-03-14T06:19:28.900Z,1003.32
2016-03-14T06:20:28.902Z,1003.29
2016-03-14T06:21:28.890Z,1003.31
2016-03-14T06:22:28.892Z,1003.35
2016-03-14T06:23:28.895Z,1003.32
2016-03-14T06:24:28.867Z,1003.29
2016-03-14T06:25:28.885Z,1003.32
2016-03-14T06:26:28.872Z,1003.32
2016-03-14T06:27:28.859Z,1003.3
2016-03-14T06:28:28.861Z,1003.29
2016-03-14T06:29:28.848Z,1003.31
2016-03-14T06:30:28.836Z,1003.36
2016-03-14T06:31:28.839Z,1003.33
2016-03-14T06:32:28.842Z,1003.34
2016-03-14T06:33:28.828Z,1003.35
2016-03-14T06:34:28.815Z,1003.33
2016-03-14T06:35:28.817Z,1003.36
2016-03-14T06:36:28.820Z,1003.37
2016-03-14T06:37:28.808Z,1003.39
2016-03-14T06:38:28.811Z,1003.42
2016-03-14T06:39:28.813Z,1003.38
2016-03-14T06:40:28.800Z,1003.36
2016-03-14T06:41:28.787Z,1003.39
2016-03-14T06:42:28.791Z,1003.37
2016-03-14T06:43:28.793Z,1003.35
2016-03-14T06:44:28.780Z,1003.34
2016-03-14T06:45:28.766Z,1003.34
2016-03-14T06:46:28.769Z,1003.35
2016-03-14T06:47:28.771Z,1003.31
2016-03-14T06:48:28.774Z,1003.4
2016-03-14T06:49:28.746Z,1003.37
2016-03-14T06:50:28.749Z,1003.33
2016-03-14T06:51:28.751Z,1003.41
2016-03-14T06:52:28.738Z,1003.39
2016-03-14T06:53:28.725Z,1003.37
2016-03-14T06:54:28.728Z,1003.32
2016-03-14T06:55:28.731Z,1003.32
2016-03-14T06:56:28.718Z,1003.33
2016-03-14T06:57:28.720Z,1003.34
2016-03-14T06:58:28.708Z,1003.39
2016-03-14T06:59:28.711Z,1003.37
2016-03-14T07:00:28.698Z,1003.42
2016-03-14T07:01:28.701Z,1003.33
2016-03-14T07:02:28.703Z,1003.38
2016-03-14T07:03:28.690Z,1003.42
2016-03-14T07:04:28.692Z,1003.4
2016-03-14T07:05:28.680Z,1003.43
2016-03-14T07:06:28.683Z,1003.4
2016-03-14T07:07:28.686Z,1003.43
2016-03-14T07:08:28.673Z,1003.45
2016-03-14T07:09:28.659Z,1003.42
2016-03-14T07:10:28.662Z,1003.42
2016-03-14T07:11:28.664Z,1003.43
2016-03-14T07:12:28.652Z,1003.49
2016-03-14T07:13:28.654Z,1003.44
2016-03-14T07:14:28.642Z,1003.37
2016-03-14T07:15:28.644Z,1003.45
2016-03-14T07:16:28.647Z,1003.47
2016-03-14T07:17:28.634Z,1003.47
2016-03-14T07:18:28.638Z,1003.46
2016-03-14T07:19:28.640Z,1003.48
2016-03-14T07:20:28.627Z,1003.44
2016-03-14T07:21:28.629Z,1003.46
2016-03-14T07:22:28.616Z,1003.45
2016-03-14T07:23:28.618Z,1003.41
2016-03-14T07:24:28.607Z,1003.41
2016-03-14T07:25:28.609Z,1003.44
2016-03-14T07:26:28.612Z,1003.47
2016-03-14T07:27:28.598Z,1003.44
2016-03-14T07:28:28.664Z,1003.39
2016-03-14T07:29:28.666Z,1003.3
2016-03-14T07:30:28.606Z,1003.38
2016-03-14T07:31:28.609Z,1003.36
2016-03-14T07:32:28.596Z,1003.41
2016-03-14T07:33:28.599Z,1003.45
2016-03-14T07:34:28.601Z,1003.49
2016-03-14T07:35:28.604Z,1003.43
2016-03-14T07:36:28.607Z,1003.42
2016-03-14T07:37:28.610Z,1003.4
2016-03-14T07:38:28.597Z,1003.41
2016-03-14T07:39:28.599Z,1003.39
2016-03-14T07:40:28.602Z,1003.38
2016-03-14T07:41:28.605Z,1003.44
2016-03-14T07:42:28.608Z,1003.43
2016-03-14T07:43:28.611Z,1003.46
2016-03-14T07:44:28.613Z,1003.35
2016-03-14T07:45:28.616Z,1003.36
2016-03-14T07:46:28.618Z,1003.4
2016-03-14T07:47:28.605Z,1003.51
2016-03-14T07:48:28.624Z,1003.41
2016-03-14T07:49:28.611Z,1003.42
2016-03-14T07:50:28.613Z,1003.47
2016-03-14T07:51:28.616Z,1003.42
2016-03-14T07:52:28.619Z,1003.39
2016-03-14T07:53:28.622Z,1003.43
2016-03-14T07:54:28.624Z,1003.48
2016-03-14T07:55:28.643Z,1003.44
2016-03-14T07:56:28.629Z,1003.38
2016-03-14T07:57:28.632Z,1003.4
2016-03-14T07:58:28.650Z,1003.38
2016-03-14T07:59:28.638Z,1003.37
2016-03-14T08:00:28.640Z,1003.36
2016-03-14T08:01:28.643Z,1003.36
2016-03-14T08:02:28.645Z,1003.28
2016-03-14T08:03:28.648Z,1003.35
2016-03-14T08:04:28.651Z,1003.27
2016-03-14T08:05:28.654Z,1003.24
2016-03-14T08:06:28.669Z,1003.24
2016-03-14T08:07:28.672Z,1003.28
2016-03-14T08:08:28.674Z,1003.29
2016-03-14T08:09:28.678Z,1003.29
2016-03-14T08:10:28.680Z,1003.29
2016-03-14T08:11:28.683Z,1003.28
2016-03-14T08:12:28.685Z,1003.22
2016-03-14T08:13:28.688Z,1003.26
2016-03-14T08:14:28.690Z,1003.2
2016-03-14T08:15:28.693Z,1003.21
2016-03-14T08:16:28.696Z,1003.22
2016-03-14T08:17:28.699Z,1003.18
2016-03-14T08:18:28.701Z,1003.18
2016-03-14T08:19:28.704Z,1003.14
2016-03-14T08:20:28.721Z,1003.18
2016-03-14T08:21:28.724Z,1003.15
2016-03-14T08:22:28.712Z,1003.16
2016-03-14T08:23:28.715Z,1003.08
2016-03-14T08:24:28.717Z,1003.09
2016-03-14T08:25:28.720Z,1003.15
2016-03-14T08:26:28.723Z,1003.16
2016-03-14T08:27:28.726Z,1003.11
2016-03-14T08:28:28.743Z,1003.07
2016-03-14T08:29:28.731Z,1003.08
2016-03-14T08:30:28.748Z,1003.11
2016-03-14T08:31:28.736Z,1003.01
2016-03-14T08:32:28.739Z,1003.05
2016-03-14T08:33:28.757Z,1003.11
2016-03-14T08:34:28.759Z,1003.07
2016-03-14T08:35:28.762Z,1003.1
2016-03-14T08:36:28.765Z,1003.08
2016-03-14T08:37:28.767Z,1003.02
2016-03-14T08:38:28.755Z,1003
2016-03-14T08:39:28.758Z,1002.99
2016-03-14T08:40:28.761Z,1002.97
2016-03-14T08:41:28.764Z,1003
2016-03-14T08:42:28.781Z,1003.04
2016-03-14T08:43:28.769Z,1002.96
2016-03-14T08:44:28.772Z,1002.97
2016-03-14T08:45:28.774Z,1002.97
2016-03-14T08:46:28.761Z,1002.96
2016-03-14T08:47:28.779Z,1003.01
2016-03-14T08:48:28.766Z,1002.97
2016-03-14T08:49:28.769Z,1002.95
2016-03-14T08:50:28.772Z,1002.89
2016-03-14T08:51:28.759Z,1002.97
2016-03-14T08:52:28.777Z,1002.94
2016-03-14T08:53:28.765Z,1002.92
2016-03-14T08:54:28.751Z,1002.94
2016-03-14T08:55:28.754Z,1002.92
2016-03-14T08:56:28.757Z,1002.86
2016-03-14T08:57:28.759Z,1002.82
2016-03-14T08:58:28.746Z,1002.88
2016-03-14T08:59:28.749Z,1002.83
2016-03-14T09:00:28.752Z,1002.85
2016-03-14T09:01:28.754Z,1002.79
2016-03-14T09:02:28.742Z,1002.75
2016-03-14T09:03:28.744Z,1002.73
2016-03-14T09:04:28.747Z,1002.75
2016-03-14T09:05:28.750Z,1002.75
2016-03-14T09:06:28.737Z,1002.72
2016-03-14T09:07:28.739Z,1002.73
2016-03-14T09:08:28.742Z,1002.79
2016-03-14T09:09:28.744Z,1002.74
2016-03-14T09:10:28.747Z,1002.72
2016-03-14T09:11:28.750Z,1002.78
2016-03-14T09:12:28.736Z,1002.77
2016-03-14T09:13:28.739Z,1002.83
2016-03-14T09:14:28.742Z,1002.81
2016-03-14T09:15:28.730Z,1002.82
2016-03-14T09:16:28.732Z,1002.82
2016-03-14T09:17:28.735Z,1002.79
2016-03-14T09:18:28.721Z,1002.77
2016-03-14T09:19:28.741Z,1002.84
2016-03-14T09:20:28.727Z,1002.79
2016-03-14T09:21:28.730Z,1002.79
2016-03-14T09:22:28.717Z,1002.74
2016-03-14T09:23:28.720Z,1002.78
2016-03-14T09:24:28.722Z,1002.75
2016-03-14T09:25:28.726Z,1002.72
2016-03-14T09:26:28.712Z,1002.76
2016-03-14T09:27:28.715Z,1002.82
2016-03-14T09:28:28.717Z,1002.77
2016-03-14T09:29:28.720Z,1002.8
2016-03-14T09:30:28.707Z,1002.77
2016-03-14T09:31:28.709Z,1002.75
2016-03-14T09:32:28.713Z,1002.7
2016-03-14T09:33:28.715Z,1002.77
2016-03-14T09:34:28.718Z,1002.75
2016-03-14T09:35:28.705Z,1002.75
2016-03-14T09:36:28.708Z,1002.76
2016-03-14T09:37:28.711Z,1002.73
2016-03-14T09:38:28.698Z,1002.72
2016-03-14T09:39:28.700Z,1002.76
2016-03-14T09:40:28.703Z,1002.69
2016-03-14T09:41:28.706Z,1002.69
2016-03-14T09:42:28.693Z,1002.72
2016-03-14T09:43:28.695Z,1002.58
2016-03-14T09:44:28.698Z,1002.58
2016-03-14T09:45:28.686Z,1002.63
2016-03-14T09:46:28.703Z,1002.58
2016-03-14T09:47:28.691Z,1002.67
2016-03-14T09:48:28.693Z,1002.6
2016-03-14T09:49:28.680Z,1002.57
2016-03-14T09:50:28.699Z,1002.55
2016-03-14T09:51:28.685Z,1002.56
2016-03-14T09:52:28.689Z,1002.51
2016-03-14T09:53:28.676Z,1002.49
2016-03-14T09:54:28.679Z,1002.46
2016-03-14T09:55:28.681Z,1002.46
2016-03-14T09:56:28.715Z,1002.44
2016-03-14T09:57:28.670Z,1002.43
2016-03-14T09:58:28.673Z,1002.41
2016-03-14T09:59:28.692Z,1002.46
2016-03-14T10:00:28.679Z,1002.44
2016-03-14T10:01:28.666Z,1002.5
2016-03-14T10:02:28.668Z,1002.39
2016-03-14T10:03:28.671Z,1002.51
2016-03-14T10:04:28.659Z,1002.43
2016-03-14T10:05:28.661Z,1002.44
2016-03-14T10:06:28.669Z,1002.43
2016-03-14T10:07:28.660Z,1002.45
2016-03-14T10:08:28.664Z,1002.45
2016-03-14T10:09:28.650Z,1002.47
2016-03-14T10:10:28.669Z,1002.42
2016-03-14T10:11:28.686Z,1002.4
2016-03-14T10:12:28.658Z,1002.41
2016-03-14T10:13:28.646Z,1002.41
2016-03-14T10:14:28.649Z,1002.3
2016-03-14T10:15:28.651Z,1002.34
2016-03-14T10:16:28.638Z,1002.29
2016-03-14T10:17:28.656Z,1002.25
2016-03-14T10:18:28.643Z,1002.22
2016-03-14T10:19:28.646Z,1002.38
2016-03-14T10:20:28.648Z,1002.4
2016-03-14T10:21:28.636Z,1002.31
2016-03-14T10:22:28.638Z,1002.25
2016-03-14T10:23:28.641Z,1002.19
2016-03-14T10:24:28.643Z,1002.23
2016-03-14T10:25:28.646Z,1002.27
2016-03-14T10:26:28.634Z,1002.19
2016-03-14T10:27:28.636Z,1002.11
2016-03-14T10:28:28.640Z,1002.18
2016-03-14T10:29:28.642Z,1002.06
2016-03-14T10:30:28.645Z,1002.14
2016-03-14T10:31:28.647Z,1002.12
2016-03-14T10:32:28.650Z,1002.22
2016-03-14T10:33:28.637Z,1002.12
2016-03-14T10:34:28.640Z,1002.18
2016-03-14T10:35:28.642Z,1002.26
2016-03-14T10:36:28.644Z,1002.14
2016-03-14T10:37:28.647Z,1002.06
2016-03-14T10:38:28.634Z,1002.11
2016-03-14T10:39:28.622Z,1002.22
2016-03-14T10:40:28.624Z,1002.29
2016-03-14T10:41:28.627Z,1002.19
2016-03-14T10:42:28.630Z,1002.22
2016-03-14T10:43:28.617Z,1002.12
2016-03-14T10:44:28.619Z,1002.2
2016-03-14T10:45:28.622Z,1002.05
2016-03-14T10:46:28.625Z,1002.25
2016-03-14T10:47:28.612Z,1002.23
2016-03-14T10:48:28.615Z,1002.12
2016-03-14T10:49:28.618Z,1002.21
2016-03-14T10:50:28.620Z,1002.15
2016-03-14T10:51:28.623Z,1002.18
2016-03-14T10:52:28.625Z,1002.04
2016-03-14T10:53:28.612Z,1002.05
2016-03-14T10:54:28.615Z,1002.03
2016-03-14T10:55:28.617Z,1002.09
2016-03-14T10:56:28.637Z,1002.12
2016-03-14T10:57:28.607Z,1002.09
2016-03-14T10:58:28.610Z,1002.03
2016-03-14T10:59:28.612Z,1001.98
2016-03-14T11:00:28.615Z,1001.96
2016-03-14T11:01:28.604Z,1002.07
2016-03-14T11:02:28.606Z,1001.94
2016-03-14T11:03:28.609Z,1001.88
2016-03-14T11:04:28.612Z,1002.02
2016-03-14T11:05:28.615Z,1002.03
2016-03-14T11:06:28.601Z,1001.95
2016-03-14T11:07:28.620Z,1001.95
2016-03-14T11:08:28.607Z,1002.02
2016-03-14T11:09:28.609Z,1001.99
2016-03-14T11:10:28.596Z,1001.92
2016-03-14T11:11:28.598Z,1001.93
2016-03-14T11:12:28.601Z,1001.94
2016-03-14T11:13:28.604Z,1001.96
2016-03-14T11:14:28.623Z,1001.95
2016-03-14T11:15:28.595Z,1001.9
2016-03-14T11:16:28.597Z,1001.83
2016-03-14T11:17:28.600Z,1001.76
2016-03-14T11:18:28.602Z,1001.94
2016-03-14T11:19:28.589Z,1001.73
2016-03-14T11:20:28.592Z,1001.78
2016-03-14T11:21:28.595Z,1001.82
2016-03-14T11:22:28.600Z,1001.8
2016-03-14T11:23:28.602Z,1001.81
2016-03-14T11:24:28.590Z,1001.86
2016-03-14T11:25:28.593Z,1001.93
2016-03-14T11:26:28.611Z,1001.78
2016-03-14T11:27:28.598Z,1001.85
2016-03-14T11:28:28.601Z,1001.8
2016-03-14T11:29:28.604Z,1001.83
2016-03-14T11:30:28.606Z,1001.78
2016-03-14T11:31:28.594Z,1001.79
2016-03-14T11:32:28.612Z,1001.81
2016-03-14T11:33:28.615Z,1001.84
2016-03-14T11:34:28.602Z,1001.98
2016-03-14T11:35:28.604Z,1001.91
2016-03-14T11:36:28.591Z,1001.74
2016-03-14T11:37:28.593Z,1001.87
2016-03-14T11:38:28.596Z,1001.93
2016-03-14T11:39:28.599Z,1001.84
2016-03-14T11:40:28.601Z,1001.84
2016-03-14T11:41:28.590Z,1001.79
2016-03-14T11:42:28.592Z,1001.78
2016-03-14T11:43:28.594Z,1001.77
2016-03-14T11:44:28.597Z,1001.75
2016-03-14T11:45:28.600Z,1001.62
2016-03-14T11:46:28.603Z,1001.74
2016-03-14T11:47:28.589Z,1001.75
2016-03-14T11:48:28.592Z,1001.73
2016-03-14T11:49:28.595Z,1001.68
2016-03-14T11:50:28.598Z,1001.65
2016-03-14T11:51:28.616Z,1001.69
2016-03-14T11:52:28.587Z,1001.77
2016-03-14T11:53:28.589Z,1001.61
2016-03-14T11:54:28.585Z,1001.69
2016-03-14T11:55:28.579Z,1001.72
2016-03-14T11:56:28.571Z,1001.66
2016-03-14T11:57:28.564Z,1001.52
2016-03-14T11:58:28.563Z,1001.68
2016-03-14T11:59:28.545Z,1001.65
2016-03-14T12:00:28.544Z,1001.6
2016-03-14T12:01:28.543Z,1001.57
2016-03-14T12:02:28.526Z,1001.62
2016-03-14T12:03:28.541Z,1001.66
2016-03-14T12:04:28.526Z,1001.65
2016-03-14T12:05:28.527Z,1001.66
2016-03-14T12:06:28.529Z,1001.61
2016-03-14T12:07:28.531Z,1001.61